sensor_id;sensor_type;location;lat;lon;timestamp;temperature;humidity
3866;DHT22;1948;53.250;10.412;2023-04-03T00:01:24;2.80;99.90
3866;DHT22;1948;53.250;10.412;2023-04-03T00:03:56;2.80;99.90
3866;DHT22;1948;53.250;10.412;2023-04-03T00:06:24;2.70;99.90
3866;DHT22;1948;53.250;10.412;2023-04-03T00:08:52;2.70;99.90
3866;DHT22;1948;53.250;10.412;2023-04-03T00:11:19;2.70;99.90
3866;DHT22;1948;53.250;10.412;2023-04-03T00:13:47;2.70;99.90
3866;DHT22;1948;53.250;10.412;2023-04-03T00:16:18;2.60;99.90
3866;DHT22;1948;53.250;10.412;2023-04-03T00:18:45;2.60;99.90
3866;DHT22;1948;53.250;10.412;2023-04-03T00:21:17;2.60;99.90
3866;DHT22;1948;53.250;10.412;2023-04-03T00:23:44;2.60;99.90
3866;DHT22;1948;53.250;10.412;2023-04-03T00:26:12;2.50;99.90
3866;DHT22;1948;53.250;10.412;2023-04-03T00:28:39;2.50;99.90
3866;DHT22;1948;53.250;10.412;2023-04-03T00:31:09;2.50;99.90
3866;DHT22;1948;53.250;10.412;2023-04-03T00:33:42;2.50;99.90
3866;DHT22;1948;53.250;10.412;2023-04-03T00:36:12;2.50;99.90
3866;DHT22;1948;53.250;10.412;2023-04-03T00:38:42;2.50;99.90
3866;DHT22;1948;53.250;10.412;2023-04-03T00:41:09;2.40;99.90
3866;DHT22;1948;53.250;10.412;2023-04-03T00:43:36;2.40;99.90
3866;DHT22;1948;53.250;10.412;2023-04-03T00:46:03;2.30;99.90
3866;DHT22;1948;53.250;10.412;2023-04-03T00:48:44;2.30;99.90
3866;DHT22;1948;53.250;10.412;2023-04-03T00:51:22;2.30;99.90
3866;DHT22;1948;53.250;10.412;2023-04-03T00:53:55;2.20;99.90
3866;DHT22;1948;53.250;10.412;2023-04-03T00:56:29;2.20;99.90
3866;DHT22;1948;53.250;10.412;2023-04-03T00:59:15;2.20;99.90
3866;DHT22;1948;53.250;10.412;2023-04-03T01:01:44;2.10;99.90
3866;DHT22;1948;53.250;10.412;2023-04-03T01:04:36;2.10;99.90
3866;DHT22;1948;53.250;10.412;2023-04-03T01:07:16;2.10;99.90
3866;DHT22;1948;53.250;10.412;2023-04-03T01:09:45;2.10;99.90
3866;DHT22;1948;53.250;10.412;2023-04-03T01:12:21;2.10;99.90
3866;DHT22;1948;53.250;10.412;2023-04-03T01:15:04;2.10;99.90
3866;DHT22;1948;53.250;10.412;2023-04-03T01:17:50;2.00;99.90
3866;DHT22;1948;53.250;10.412;2023-04-03T01:25:50;2.00;99.90
3866;DHT22;1948;53.250;10.412;2023-04-03T01:28:30;2.00;99.90
3866;DHT22;1948;53.250;10.412;2023-04-03T01:31:10;2.00;99.90
3866;DHT22;1948;53.250;10.412;2023-04-03T01:33:44;2.00;99.90
3866;DHT22;1948;53.250;10.412;2023-04-03T01:36:17;2.00;99.90
3866;DHT22;1948;53.250;10.412;2023-04-03T01:38:48;1.90;99.90
3866;DHT22;1948;53.250;10.412;2023-04-03T01:41:18;1.90;99.90
3866;DHT22;1948;53.250;10.412;2023-04-03T01:43:50;1.90;99.90
3866;DHT22;1948;53.250;10.412;2023-04-03T01:46:22;1.80;99.90
3866;DHT22;1948;53.250;10.412;2023-04-03T01:48:49;1.80;99.90
3866;DHT22;1948;53.250;10.412;2023-04-03T01:51:17;1.80;99.90
3866;DHT22;1948;53.250;10.412;2023-04-03T01:53:46;1.80;99.90
3866;DHT22;1948;53.250;10.412;2023-04-03T01:56:13;1.80;99.90
3866;DHT22;1948;53.250;10.412;2023-04-03T01:58:43;1.80;99.90
3866;DHT22;1948;53.250;10.412;2023-04-03T02:01:10;1.80;99.90
3866;DHT22;1948;53.250;10.412;2023-04-03T02:03:37;1.80;99.90
3866;DHT22;1948;53.250;10.412;2023-04-03T02:06:04;1.80;99.90
3866;DHT22;1948;53.250;10.412;2023-04-03T02:08:34;1.80;99.90
3866;DHT22;1948;53.250;10.412;2023-04-03T02:11:03;1.80;99.90
3866;DHT22;1948;53.250;10.412;2023-04-03T02:13:30;1.80;99.90
3866;DHT22;1948;53.250;10.412;2023-04-03T02:15:57;1.80;99.90
3866;DHT22;1948;53.250;10.412;2023-04-03T02:18:25;1.80;99.90
3866;DHT22;1948;53.250;10.412;2023-04-03T02:20:52;1.70;99.90
3866;DHT22;1948;53.250;10.412;2023-04-03T02:23:19;1.70;99.90
3866;DHT22;1948;53.250;10.412;2023-04-03T02:25:48;1.70;99.90
3866;DHT22;1948;53.250;10.412;2023-04-03T02:28:15;1.70;99.90
3866;DHT22;1948;53.250;10.412;2023-04-03T02:30:46;1.70;99.90
3866;DHT22;1948;53.250;10.412;2023-04-03T02:33:15;1.70;99.90
3866;DHT22;1948;53.250;10.412;2023-04-03T02:35:42;1.70;99.90
3866;DHT22;1948;53.250;10.412;2023-04-03T02:38:09;1.70;99.90
3866;DHT22;1948;53.250;10.412;2023-04-03T02:40:39;1.60;99.90
3866;DHT22;1948;53.250;10.412;2023-04-03T02:43:06;1.50;99.90
3866;DHT22;1948;53.250;10.412;2023-04-03T02:45:33;1.50;99.90
3866;DHT22;1948;53.250;10.412;2023-04-03T02:48:00;1.50;99.90
3866;DHT22;1948;53.250;10.412;2023-04-03T02:50:28;1.40;99.90
3866;DHT22;1948;53.250;10.412;2023-04-03T02:52:57;1.40;99.90
3866;DHT22;1948;53.250;10.412;2023-04-03T02:55:26;1.40;99.90
3866;DHT22;1948;53.250;10.412;2023-04-03T02:57:55;1.40;99.90
3866;DHT22;1948;53.250;10.412;2023-04-03T03:00:22;1.40;99.90
3866;DHT22;1948;53.250;10.412;2023-04-03T03:02:49;1.40;99.90
3866;DHT22;1948;53.250;10.412;2023-04-03T03:05:17;1.70;99.90
3866;DHT22;1948;53.250;10.412;2023-04-03T03:07:44;1.80;99.90
3866;DHT22;1948;53.250;10.412;2023-04-03T03:10:11;1.80;99.90
3866;DHT22;1948;53.250;10.412;2023-04-03T03:12:43;1.80;99.90
3866;DHT22;1948;53.250;10.412;2023-04-03T03:15:10;1.80;99.90
3866;DHT22;1948;53.250;10.412;2023-04-03T03:17:38;1.70;99.90
3866;DHT22;1948;53.250;10.412;2023-04-03T03:20:06;1.60;99.90
3866;DHT22;1948;53.250;10.412;2023-04-03T03:22:34;1.50;99.90
3866;DHT22;1948;53.250;10.412;2023-04-03T03:25:02;1.50;99.90
3866;DHT22;1948;53.250;10.412;2023-04-03T03:27:29;1.40;99.90
3866;DHT22;1948;53.250;10.412;2023-04-03T03:29:57;1.30;99.90
3866;DHT22;1948;53.250;10.412;2023-04-03T03:32:28;1.40;99.90
3866;DHT22;1948;53.250;10.412;2023-04-03T03:34:55;1.40;99.90
3866;DHT22;1948;53.250;10.412;2023-04-03T03:37:24;1.40;99.90
3866;DHT22;1948;53.250;10.412;2023-04-03T03:39:51;1.40;99.90
3866;DHT22;1948;53.250;10.412;2023-04-03T03:42:18;1.40;99.90
3866;DHT22;1948;53.250;10.412;2023-04-03T03:44:48;1.40;99.90
3866;DHT22;1948;53.250;10.412;2023-04-03T03:47:15;1.40;99.90
3866;DHT22;1948;53.250;10.412;2023-04-03T03:49:44;1.40;99.90
3866;DHT22;1948;53.250;10.412;2023-04-03T03:52:11;1.40;99.90
3866;DHT22;1948;53.250;10.412;2023-04-03T03:54:40;1.40;99.90
3866;DHT22;1948;53.250;10.412;2023-04-03T03:57:11;1.40;99.90
3866;DHT22;1948;53.250;10.412;2023-04-03T03:59:38;1.40;99.90
3866;DHT22;1948;53.250;10.412;2023-04-03T04:02:07;1.40;99.90
3866;DHT22;1948;53.250;10.412;2023-04-03T04:04:37;1.30;99.90
3866;DHT22;1948;53.250;10.412;2023-04-03T04:07:04;1.30;99.90
3866;DHT22;1948;53.250;10.412;2023-04-03T04:09:31;1.30;99.90
3866;DHT22;1948;53.250;10.412;2023-04-03T04:12:03;1.30;99.90
3866;DHT22;1948;53.250;10.412;2023-04-03T04:14:33;1.20;99.90
3866;DHT22;1948;53.250;10.412;2023-04-03T04:17:00;1.20;99.90
3866;DHT22;1948;53.250;10.412;2023-04-03T04:19:29;1.10;99.90
3866;DHT22;1948;53.250;10.412;2023-04-03T04:22:02;1.10;99.90
3866;DHT22;1948;53.250;10.412;2023-04-03T04:24:32;1.10;99.90
3866;DHT22;1948;53.250;10.412;2023-04-03T04:27:00;1.00;99.90
3866;DHT22;1948;53.250;10.412;2023-04-03T04:29:27;1.00;99.90
3866;DHT22;1948;53.250;10.412;2023-04-03T04:31:56;1.00;99.90
3866;DHT22;1948;53.250;10.412;2023-04-03T04:34:25;1.00;99.90
3866;DHT22;1948;53.250;10.412;2023-04-03T04:36:53;1.00;99.90
3866;DHT22;1948;53.250;10.412;2023-04-03T04:39:20;1.00;99.90
3866;DHT22;1948;53.250;10.412;2023-04-03T04:41:47;1.00;99.90
3866;DHT22;1948;53.250;10.412;2023-04-03T04:44:17;1.00;99.90
3866;DHT22;1948;53.250;10.412;2023-04-03T04:46:44;1.00;99.90
3866;DHT22;1948;53.250;10.412;2023-04-03T04:49:14;1.10;99.90
3866;DHT22;1948;53.250;10.412;2023-04-03T04:51:41;1.10;99.90
3866;DHT22;1948;53.250;10.412;2023-04-03T04:54:20;1.10;99.90
3866;DHT22;1948;53.250;10.412;2023-04-03T04:56:50;1.00;99.90
3866;DHT22;1948;53.250;10.412;2023-04-03T04:59:20;1.10;99.90
3866;DHT22;1948;53.250;10.412;2023-04-03T05:01:47;1.20;99.90
3866;DHT22;1948;53.250;10.412;2023-04-03T05:04:14;1.30;99.90
3866;DHT22;1948;53.250;10.412;2023-04-03T05:06:42;1.30;99.90
3866;DHT22;1948;53.250;10.412;2023-04-03T05:09:09;1.30;99.90
3866;DHT22;1948;53.250;10.412;2023-04-03T05:11:37;1.30;99.90
3866;DHT22;1948;53.250;10.412;2023-04-03T05:14:04;1.30;99.90
3866;DHT22;1948;53.250;10.412;2023-04-03T05:16:33;1.30;99.90
3866;DHT22;1948;53.250;10.412;2023-04-03T05:19:02;1.30;99.90
3866;DHT22;1948;53.250;10.412;2023-04-03T05:21:30;1.40;99.90
3866;DHT22;1948;53.250;10.412;2023-04-03T05:24:02;1.50;99.90
3866;DHT22;1948;53.250;10.412;2023-04-03T05:26:30;1.50;99.90
3866;DHT22;1948;53.250;10.412;2023-04-03T05:28:58;1.60;99.90
3866;DHT22;1948;53.250;10.412;2023-04-03T05:31:28;1.60;99.90
3866;DHT22;1948;53.250;10.412;2023-04-03T05:33:58;1.70;99.90
3866;DHT22;1948;53.250;10.412;2023-04-03T05:36:26;1.70;99.90
3866;DHT22;1948;53.250;10.412;2023-04-03T05:38:53;1.80;99.90
3866;DHT22;1948;53.250;10.412;2023-04-03T05:41:23;1.80;99.90
3866;DHT22;1948;53.250;10.412;2023-04-03T05:43:50;1.80;99.90
3866;DHT22;1948;53.250;10.412;2023-04-03T05:46:20;1.90;99.90
3866;DHT22;1948;53.250;10.412;2023-04-03T05:48:49;2.00;99.90
3866;DHT22;1948;53.250;10.412;2023-04-03T05:51:39;2.10;99.90
3866;DHT22;1948;53.250;10.412;2023-04-03T05:56:51;2.20;99.90
3866;DHT22;1948;53.250;10.412;2023-04-03T05:59:21;2.20;99.90
3866;DHT22;1948;53.250;10.412;2023-04-03T06:01:50;2.30;99.90
3866;DHT22;1948;53.250;10.412;2023-04-03T06:04:17;2.40;99.90
3866;DHT22;1948;53.250;10.412;2023-04-03T06:06:56;2.50;99.90
3866;DHT22;1948;53.250;10.412;2023-04-03T06:09:26;2.50;99.90
3866;DHT22;1948;53.250;10.412;2023-04-03T06:11:56;2.70;99.90
3866;DHT22;1948;53.250;10.412;2023-04-03T06:14:29;2.80;99.90
3866;DHT22;1948;53.250;10.412;2023-04-03T06:16:58;2.90;99.90
3866;DHT22;1948;53.250;10.412;2023-04-03T06:19:28;3.00;99.90
3866;DHT22;1948;53.250;10.412;2023-04-03T06:21:55;3.10;99.90
3866;DHT22;1948;53.250;10.412;2023-04-03T06:24:23;3.20;99.90
3866;DHT22;1948;53.250;10.412;2023-04-03T06:26:52;3.30;99.90
3866;DHT22;1948;53.250;10.412;2023-04-03T06:29:22;3.40;99.90
3866;DHT22;1948;53.250;10.412;2023-04-03T06:31:54;3.60;99.90
3866;DHT22;1948;53.250;10.412;2023-04-03T06:34:21;3.80;99.90
3866;DHT22;1948;53.250;10.412;2023-04-03T06:36:50;4.00;99.90
3866;DHT22;1948;53.250;10.412;2023-04-03T06:39:20;4.20;99.90
3866;DHT22;1948;53.250;10.412;2023-04-03T06:41:50;4.40;99.90
3866;DHT22;1948;53.250;10.412;2023-04-03T06:44:22;4.60;99.90
3866;DHT22;1948;53.250;10.412;2023-04-03T06:46:49;4.90;99.90
3866;DHT22;1948;53.250;10.412;2023-04-03T06:49:18;5.20;99.90
3866;DHT22;1948;53.250;10.412;2023-04-03T06:51:45;5.60;99.90
3866;DHT22;1948;53.250;10.412;2023-04-03T06:54:12;6.00;99.90
3866;DHT22;1948;53.250;10.412;2023-04-03T06:56:39;6.40;99.90
3866;DHT22;1948;53.250;10.412;2023-04-03T06:59:12;6.80;99.90
3866;DHT22;1948;53.250;10.412;2023-04-03T07:01:42;7.30;99.90
3866;DHT22;1948;53.250;10.412;2023-04-03T07:04:09;7.80;99.90
3866;DHT22;1948;53.250;10.412;2023-04-03T07:06:41;8.30;99.90
3866;DHT22;1948;53.250;10.412;2023-04-03T07:09:11;8.60;99.90
3866;DHT22;1948;53.250;10.412;2023-04-03T07:11:41;9.00;99.90
3866;DHT22;1948;53.250;10.412;2023-04-03T07:14:08;9.40;99.90
3866;DHT22;1948;53.250;10.412;2023-04-03T07:16:35;9.60;99.90
3866;DHT22;1948;53.250;10.412;2023-04-03T07:19:04;9.80;99.90
3866;DHT22;1948;53.250;10.412;2023-04-03T07:21:32;10.40;99.90
3866;DHT22;1948;53.250;10.412;2023-04-03T07:23:59;10.80;99.90
3866;DHT22;1948;53.250;10.412;2023-04-03T07:26:26;11.10;99.90
3866;DHT22;1948;53.250;10.412;2023-04-03T07:28:56;11.70;99.90
3866;DHT22;1948;53.250;10.412;2023-04-03T07:31:29;11.90;99.90
3866;DHT22;1948;53.250;10.412;2023-04-03T07:33:56;12.60;99.90
3866;DHT22;1948;53.250;10.412;2023-04-03T07:36:28;13.20;99.90
3866;DHT22;1948;53.250;10.412;2023-04-03T07:38:56;13.70;99.90
3866;DHT22;1948;53.250;10.412;2023-04-03T07:41:23;14.30;99.90
3866;DHT22;1948;53.250;10.412;2023-04-03T07:43:50;14.70;99.40
3866;DHT22;1948;53.250;10.412;2023-04-03T07:46:17;15.30;98.40
3866;DHT22;1948;53.250;10.412;2023-04-03T07:48:44;15.60;96.50
3866;DHT22;1948;53.250;10.412;2023-04-03T07:51:11;15.40;95.10
3866;DHT22;1948;53.250;10.412;2023-04-03T07:53:39;15.40;94.10
3866;DHT22;1948;53.250;10.412;2023-04-03T07:56:07;15.80;93.50
3866;DHT22;1948;53.250;10.412;2023-04-03T07:58:34;16.40;92.70
3866;DHT22;1948;53.250;10.412;2023-04-03T08:01:04;17.00;91.40
3866;DHT22;1948;53.250;10.412;2023-04-03T08:03:32;17.50;89.80
3866;DHT22;1948;53.250;10.412;2023-04-03T08:06:05;17.60;88.00
3866;DHT22;1948;53.250;10.412;2023-04-03T08:08:42;18.00;86.80
3866;DHT22;1948;53.250;10.412;2023-04-03T08:11:12;18.00;84.20
3866;DHT22;1948;53.250;10.412;2023-04-03T08:13:39;17.70;82.00
3866;DHT22;1948;53.250;10.412;2023-04-03T08:16:13;18.10;81.70
3866;DHT22;1948;53.250;10.412;2023-04-03T08:18:46;18.60;80.60
3866;DHT22;1948;53.250;10.412;2023-04-03T08:21:13;19.00;79.40
3866;DHT22;1948;53.250;10.412;2023-04-03T08:23:42;19.60;78.10
3866;DHT22;1948;53.250;10.412;2023-04-03T08:26:15;19.50;73.60
3866;DHT22;1948;53.250;10.412;2023-04-03T08:28:47;19.30;72.10
3866;DHT22;1948;53.250;10.412;2023-04-03T08:31:20;19.10;70.40
3866;DHT22;1948;53.250;10.412;2023-04-03T08:33:47;18.50;70.50
3866;DHT22;1948;53.250;10.412;2023-04-03T08:36:26;18.50;69.00
3866;DHT22;1948;53.250;10.412;2023-04-03T08:38:56;19.00;69.70
3866;DHT22;1948;53.250;10.412;2023-04-03T08:41:41;18.70;68.20
3866;DHT22;1948;53.250;10.412;2023-04-03T08:44:38;19.20;67.70
3866;DHT22;1948;53.250;10.412;2023-04-03T08:50:02;19.30;62.70
3866;DHT22;1948;53.250;10.412;2023-04-03T08:52:34;19.60;62.60
3866;DHT22;1948;53.250;10.412;2023-04-03T08:58:26;20.20;61.30
3866;DHT22;1948;53.250;10.412;2023-04-03T09:01:10;21.20;59.10
3866;DHT22;1948;53.250;10.412;2023-04-03T09:03:44;21.90;58.40
3866;DHT22;1948;53.250;10.412;2023-04-03T09:06:15;22.20;58.00
3866;DHT22;1948;53.250;10.412;2023-04-03T09:22:33;22.50;51.00
3866;DHT22;1948;53.250;10.412;2023-04-03T09:25:20;22.10;51.00
3866;DHT22;1948;53.250;10.412;2023-04-03T09:27:50;21.70;52.30
3866;DHT22;1948;53.250;10.412;2023-04-03T09:30:25;22.40;51.60
3866;DHT22;1948;53.250;10.412;2023-04-03T09:32:56;22.30;51.40
3866;DHT22;1948;53.250;10.412;2023-04-03T09:35:26;22.80;52.10
3866;DHT22;1948;53.250;10.412;2023-04-03T09:38:15;23.70;51.60
3866;DHT22;1948;53.250;10.412;2023-04-03T09:40:50;23.30;49.80
3866;DHT22;1948;53.250;10.412;2023-04-03T09:43:32;22.90;49.70
3866;DHT22;1948;53.250;10.412;2023-04-03T09:46:29;22.50;50.70
3866;DHT22;1948;53.250;10.412;2023-04-03T09:49:04;22.60;51.70
3866;DHT22;1948;53.250;10.412;2023-04-03T09:51:36;23.70;52.50
3866;DHT22;1948;53.250;10.412;2023-04-03T09:54:34;24.80;50.80
3866;DHT22;1948;53.250;10.412;2023-04-03T09:57:13;25.20;49.50
3866;DHT22;1948;53.250;10.412;2023-04-03T09:59:46;25.10;48.70
3866;DHT22;1948;53.250;10.412;2023-04-03T10:02:35;25.10;48.10
3866;DHT22;1948;53.250;10.412;2023-04-03T10:05:37;24.50;47.40
3866;DHT22;1948;53.250;10.412;2023-04-03T10:10:47;24.60;45.50
3866;DHT22;1948;53.250;10.412;2023-04-03T10:13:18;24.60;45.50
3866;DHT22;1948;53.250;10.412;2023-04-03T10:15:56;25.10;45.80
3866;DHT22;1948;53.250;10.412;2023-04-03T10:19:05;25.90;45.60
3866;DHT22;1948;53.250;10.412;2023-04-03T10:21:48;26.70;45.50
3866;DHT22;1948;53.250;10.412;2023-04-03T10:24:31;27.00;44.30
3866;DHT22;1948;53.250;10.412;2023-04-03T10:29:59;26.10;43.20
3866;DHT22;1948;53.250;10.412;2023-04-03T10:41:42;22.10;44.10
3866;DHT22;1948;53.250;10.412;2023-04-03T10:44:54;20.50;44.30
3866;DHT22;1948;53.250;10.412;2023-04-03T10:47:36;20.30;46.30
3866;DHT22;1948;53.250;10.412;2023-04-03T10:58:43;17.30;48.70
3866;DHT22;1948;53.250;10.412;2023-04-03T11:01:19;19.00;48.60
3866;DHT22;1948;53.250;10.412;2023-04-03T11:03:59;20.80;47.00
3866;DHT22;1948;53.250;10.412;2023-04-03T11:07:22;21.50;46.40
3866;DHT22;1948;53.250;10.412;2023-04-03T11:09:52;22.60;46.20
3866;DHT22;1948;53.250;10.412;2023-04-03T11:12:48;23.60;44.70
3866;DHT22;1948;53.250;10.412;2023-04-03T11:15:20;21.90;43.90
3866;DHT22;1948;53.250;10.412;2023-04-03T11:18:03;22.20;45.30
3866;DHT22;1948;53.250;10.412;2023-04-03T11:20:38;21.40;45.50
3866;DHT22;1948;53.250;10.412;2023-04-03T11:23:26;20.10;45.70
3866;DHT22;1948;53.250;10.412;2023-04-03T11:26:21;17.80;46.00
3866;DHT22;1948;53.250;10.412;2023-04-03T11:28:58;15.90;47.60
3866;DHT22;1948;53.250;10.412;2023-04-03T11:31:45;15.00;48.80
3866;DHT22;1948;53.250;10.412;2023-04-03T11:40:29;18.00;50.40
3866;DHT22;1948;53.250;10.412;2023-04-03T11:43:07;18.80;47.60
3866;DHT22;1948;53.250;10.412;2023-04-03T11:46:05;17.50;47.90
3866;DHT22;1948;53.250;10.412;2023-04-03T11:53:54;14.20;51.20
3866;DHT22;1948;53.250;10.412;2023-04-03T11:59:24;15.40;52.00
3866;DHT22;1948;53.250;10.412;2023-04-03T12:01:53;18.90;50.90
3866;DHT22;1948;53.250;10.412;2023-04-03T12:04:24;21.20;49.00
3866;DHT22;1948;53.250;10.412;2023-04-03T12:07:18;20.50;46.50
3866;DHT22;1948;53.250;10.412;2023-04-03T12:15:18;19.40;47.80
3866;DHT22;1948;53.250;10.412;2023-04-03T12:17:46;18.00;47.20
3866;DHT22;1948;53.250;10.412;2023-04-03T12:23:31;15.80;48.40
3866;DHT22;1948;53.250;10.412;2023-04-03T12:28:49;16.70;50.10
3866;DHT22;1948;53.250;10.412;2023-04-03T12:31:23;18.80;48.60
3866;DHT22;1948;53.250;10.412;2023-04-03T12:45:49;13.00;52.80
3866;DHT22;1948;53.250;10.412;2023-04-03T12:48:24;12.80;53.40
3866;DHT22;1948;53.250;10.412;2023-04-03T12:50:53;12.80;54.10
3866;DHT22;1948;53.250;10.412;2023-04-03T12:53:25;13.00;54.30
3866;DHT22;1948;53.250;10.412;2023-04-03T12:56:21;14.10;54.50
3866;DHT22;1948;53.250;10.412;2023-04-03T13:02:00;15.20;51.50
3866;DHT22;1948;53.250;10.412;2023-04-03T13:04:29;14.30;52.10
3866;DHT22;1948;53.250;10.412;2023-04-03T13:06:58;14.40;52.70
3866;DHT22;1948;53.250;10.412;2023-04-03T13:09:31;16.70;52.30
3866;DHT22;1948;53.250;10.412;2023-04-03T13:12:17;19.10;49.90
3866;DHT22;1948;53.250;10.412;2023-04-03T13:15:03;21.30;48.40
3866;DHT22;1948;53.250;10.412;2023-04-03T13:17:43;22.60;46.80
3866;DHT22;1948;53.250;10.412;2023-04-03T13:25:28;25.00;44.90
3866;DHT22;1948;53.250;10.412;2023-04-03T13:27:58;24.10;43.80
3866;DHT22;1948;53.250;10.412;2023-04-03T13:30:41;21.50;44.40
3866;DHT22;1948;53.250;10.412;2023-04-03T13:33:25;20.10;46.20
3866;DHT22;1948;53.250;10.412;2023-04-03T13:36:00;18.90;46.70
3866;DHT22;1948;53.250;10.412;2023-04-03T13:38:32;17.90;47.50
3866;DHT22;1948;53.250;10.412;2023-04-03T13:41:23;17.50;47.30
3866;DHT22;1948;53.250;10.412;2023-04-03T13:43:53;18.10;48.50
3866;DHT22;1948;53.250;10.412;2023-04-03T13:46:36;19.60;48.00
3866;DHT22;1948;53.250;10.412;2023-04-03T13:49:20;20.60;47.50
3866;DHT22;1948;53.250;10.412;2023-04-03T13:51:59;21.20;46.00
3866;DHT22;1948;53.250;10.412;2023-04-03T13:54:38;21.40;45.70
3866;DHT22;1948;53.250;10.412;2023-04-03T13:57:14;21.80;45.70
3866;DHT22;1948;53.250;10.412;2023-04-03T13:59:43;21.10;44.80
3866;DHT22;1948;53.250;10.412;2023-04-03T14:02:29;20.50;45.40
3866;DHT22;1948;53.250;10.412;2023-04-03T14:05:02;19.20;45.20
3866;DHT22;1948;53.250;10.412;2023-04-03T14:07:33;18.80;45.80
3866;DHT22;1948;53.250;10.412;2023-04-03T14:10:01;19.50;47.00
3866;DHT22;1948;53.250;10.412;2023-04-03T14:12:37;20.00;46.90
3866;DHT22;1948;53.250;10.412;2023-04-03T14:15:17;20.30;46.80
3866;DHT22;1948;53.250;10.412;2023-04-03T14:17:46;19.80;46.00
3866;DHT22;1948;53.250;10.412;2023-04-03T14:20:19;19.40;46.10
3866;DHT22;1948;53.250;10.412;2023-04-03T14:22:48;19.70;46.70
3866;DHT22;1948;53.250;10.412;2023-04-03T14:25:16;19.30;46.10
3866;DHT22;1948;53.250;10.412;2023-04-03T14:27:47;19.00;46.90
3866;DHT22;1948;53.250;10.412;2023-04-03T14:30:20;18.80;45.90
3866;DHT22;1948;53.250;10.412;2023-04-03T14:32:49;18.90;45.90
3866;DHT22;1948;53.250;10.412;2023-04-03T14:35:20;18.50;45.10
3866;DHT22;1948;53.250;10.412;2023-04-03T14:37:52;17.30;46.00
3866;DHT22;1948;53.250;10.412;2023-04-03T14:40:27;16.00;46.90
3866;DHT22;1948;53.250;10.412;2023-04-03T14:42:56;15.20;47.80
3866;DHT22;1948;53.250;10.412;2023-04-03T14:45:26;15.00;48.70
3866;DHT22;1948;53.250;10.412;2023-04-03T14:47:55;15.50;49.40
3866;DHT22;1948;53.250;10.412;2023-04-03T14:50:25;15.80;48.70
3866;DHT22;1948;53.250;10.412;2023-04-03T14:52:58;15.60;48.20
3866;DHT22;1948;53.250;10.412;2023-04-03T14:55:26;15.30;48.10
3866;DHT22;1948;53.250;10.412;2023-04-03T14:57:56;14.80;48.70
3866;DHT22;1948;53.250;10.412;2023-04-03T15:00:24;14.70;50.00
3866;DHT22;1948;53.250;10.412;2023-04-03T15:02:53;14.40;49.20
3866;DHT22;1948;53.250;10.412;2023-04-03T15:05:23;13.50;49.20
3866;DHT22;1948;53.250;10.412;2023-04-03T15:07:54;13.00;50.20
3866;DHT22;1948;53.250;10.412;2023-04-03T15:10:30;12.90;51.20
3866;DHT22;1948;53.250;10.412;2023-04-03T15:12:58;12.80;51.40
3866;DHT22;1948;53.250;10.412;2023-04-03T15:15:29;12.90;51.10
3866;DHT22;1948;53.250;10.412;2023-04-03T15:17:57;12.70;50.80
3866;DHT22;1948;53.250;10.412;2023-04-03T15:20:27;12.70;50.90
3866;DHT22;1948;53.250;10.412;2023-04-03T15:23:00;12.80;51.00
3866;DHT22;1948;53.250;10.412;2023-04-03T15:25:30;12.60;50.40
3866;DHT22;1948;53.250;10.412;2023-04-03T15:27:58;12.10;49.90
3866;DHT22;1948;53.250;10.412;2023-04-03T15:30:28;11.80;50.30
3866;DHT22;1948;53.250;10.412;2023-04-03T15:32:57;11.60;50.60
3866;DHT22;1948;53.250;10.412;2023-04-03T15:35:28;11.50;51.30
3866;DHT22;1948;53.250;10.412;2023-04-03T15:37:56;11.30;51.90
3866;DHT22;1948;53.250;10.412;2023-04-03T15:40:23;11.30;52.00
3866;DHT22;1948;53.250;10.412;2023-04-03T15:42:50;11.10;51.50
3866;DHT22;1948;53.250;10.412;2023-04-03T15:45:19;11.10;51.60
3866;DHT22;1948;53.250;10.412;2023-04-03T15:47:48;11.00;52.00
3866;DHT22;1948;53.250;10.412;2023-04-03T15:50:15;11.10;51.30
3866;DHT22;1948;53.250;10.412;2023-04-03T15:52:42;11.20;51.20
3866;DHT22;1948;53.250;10.412;2023-04-03T15:55:09;11.10;51.50
3866;DHT22;1948;53.250;10.412;2023-04-03T15:57:36;10.90;51.90
3866;DHT22;1948;53.250;10.412;2023-04-03T16:00:09;10.80;52.30
3866;DHT22;1948;53.250;10.412;2023-04-03T16:02:37;10.60;52.10
3866;DHT22;1948;53.250;10.412;2023-04-03T16:05:04;10.40;52.40
3866;DHT22;1948;53.250;10.412;2023-04-03T16:07:32;10.30;51.80
3866;DHT22;1948;53.250;10.412;2023-04-03T16:10:04;10.20;51.80
3866;DHT22;1948;53.250;10.412;2023-04-03T16:12:33;10.10;52.90
3866;DHT22;1948;53.250;10.412;2023-04-03T16:15:00;9.90;54.90
3866;DHT22;1948;53.250;10.412;2023-04-03T16:17:28;9.80;56.00
3866;DHT22;1948;53.250;10.412;2023-04-03T16:19:55;9.80;57.00
3866;DHT22;1948;53.250;10.412;2023-04-03T16:22:26;9.70;57.20
3866;DHT22;1948;53.250;10.412;2023-04-03T16:24:56;9.50;56.70
3866;DHT22;1948;53.250;10.412;2023-04-03T16:27:24;9.40;56.70
3866;DHT22;1948;53.250;10.412;2023-04-03T16:29:55;9.30;57.10
3866;DHT22;1948;53.250;10.412;2023-04-03T16:32:27;9.20;58.20
3866;DHT22;1948;53.250;10.412;2023-04-03T16:34:57;9.10;59.00
3866;DHT22;1948;53.250;10.412;2023-04-03T16:37:24;9.10;60.20
3866;DHT22;1948;53.250;10.412;2023-04-03T16:39:54;9.00;60.20
3866;DHT22;1948;53.250;10.412;2023-04-03T16:42:21;8.90;60.40
3866;DHT22;1948;53.250;10.412;2023-04-03T16:44:48;8.80;61.40
3866;DHT22;1948;53.250;10.412;2023-04-03T16:47:15;8.70;61.10
3866;DHT22;1948;53.250;10.412;2023-04-03T16:49:48;8.60;62.60
3866;DHT22;1948;53.250;10.412;2023-04-03T16:52:22;8.60;63.50
3866;DHT22;1948;53.250;10.412;2023-04-03T16:54:49;8.60;63.60
3866;DHT22;1948;53.250;10.412;2023-04-03T16:57:18;8.50;63.80
3866;DHT22;1948;53.250;10.412;2023-04-03T16:59:49;8.40;63.00
3866;DHT22;1948;53.250;10.412;2023-04-03T17:02:20;8.40;63.90
3866;DHT22;1948;53.250;10.412;2023-04-03T17:04:50;8.40;63.90
3866;DHT22;1948;53.250;10.412;2023-04-03T17:07:21;8.20;63.80
3866;DHT22;1948;53.250;10.412;2023-04-03T17:09:52;8.10;62.40
3866;DHT22;1948;53.250;10.412;2023-04-03T17:12:23;8.00;62.20
3866;DHT22;1948;53.250;10.412;2023-04-03T17:14:52;8.00;62.00
3866;DHT22;1948;53.250;10.412;2023-04-03T17:17:25;8.00;62.10
3866;DHT22;1948;53.250;10.412;2023-04-03T17:19:55;7.90;63.30
3866;DHT22;1948;53.250;10.412;2023-04-03T17:22:25;7.80;65.70
3866;DHT22;1948;53.250;10.412;2023-04-03T17:24:52;7.70;67.40
3866;DHT22;1948;53.250;10.412;2023-04-03T17:27:19;7.60;69.40
3866;DHT22;1948;53.250;10.412;2023-04-03T17:29:49;7.50;71.20
3866;DHT22;1948;53.250;10.412;2023-04-03T17:32:16;7.50;73.70
3866;DHT22;1948;53.250;10.412;2023-04-03T17:34:46;7.50;74.00
3866;DHT22;1948;53.250;10.412;2023-04-03T17:37:16;7.40;75.20
3866;DHT22;1948;53.250;10.412;2023-04-03T17:39:43;7.40;77.30
3866;DHT22;1948;53.250;10.412;2023-04-03T17:42:12;7.30;78.50
3866;DHT22;1948;53.250;10.412;2023-04-03T17:44:39;7.10;79.90
3866;DHT22;1948;53.250;10.412;2023-04-03T17:47:09;7.10;80.80
3866;DHT22;1948;53.250;10.412;2023-04-03T17:49:38;7.10;82.60
3866;DHT22;1948;53.250;10.412;2023-04-03T17:52:05;7.10;83.70
3866;DHT22;1948;53.250;10.412;2023-04-03T17:54:33;7.00;85.30
3866;DHT22;1948;53.250;10.412;2023-04-03T17:57:00;6.90;88.70
3866;DHT22;1948;53.250;10.412;2023-04-03T17:59:30;6.90;89.20
3866;DHT22;1948;53.250;10.412;2023-04-03T18:02:00;6.80;90.60